sensor_id;sensor_type;location;lat;lon;timestamp;pressure;altitude;pressure_sealevel;temperature;humidity
36980;BME280;22891;50.562;7.272;2022-11-20T00:01:14;99881.00;;;1.82;nan
36980;BME280;22891;50.562;7.272;2022-11-20T00:03:49;99884.00;;;1.87;nan
36980;BME280;22891;50.562;7.272;2022-11-20T00:06:18;99890.00;;;1.95;nan
36980;BME280;22891;50.562;7.272;2022-11-20T00:08:46;99892.00;;;1.96;nan
36980;BME280;22891;50.562;7.272;2022-11-20T00:11:31;99890.00;;;2.08;nan
36980;BME280;22891;50.562;7.272;2022-11-20T00:14:00;99892.00;;;2.17;nan
36980;BME280;22891;50.562;7.272;2022-11-20T00:16:27;99898.00;;;2.12;nan
36980;BME280;22891;50.562;7.272;2022-11-20T00:18:54;99886.00;;;2.01;nan
36980;BME280;22891;50.562;7.272;2022-11-20T00:21:25;99903.00;;;2.03;nan
36980;BME280;22891;50.562;7.272;2022-11-20T00:23:52;99888.00;;;2.00;nan
36980;BME280;22891;50.562;7.272;2022-11-20T00:26:20;99877.00;;;2.09;nan
36980;BME280;22891;50.562;7.272;2022-11-20T00:28:51;99885.00;;;2.11;nan
36980;BME280;22891;50.562;7.272;2022-11-20T00:31:18;99871.00;;;2.21;nan
36980;BME280;22891;50.562;7.272;2022-11-20T00:33:45;99875.00;;;2.21;nan
36980;BME280;22891;50.562;7.272;2022-11-20T00:36:19;99849.00;;;1.95;nan
36980;BME280;22891;50.562;7.272;2022-11-20T00:38:46;99877.00;;;2.15;nan
36980;BME280;22891;50.562;7.272;2022-11-20T00:41:14;99872.00;;;2.17;nan
36980;BME280;22891;50.562;7.272;2022-11-20T00:43:42;99877.00;;;2.22;nan
36980;BME280;22891;50.562;7.272;2022-11-20T00:46:18;99886.00;;;2.20;nan
36980;BME280;22891;50.562;7.272;2022-11-20T00:48:45;99878.00;;;2.22;nan
36980;BME280;22891;50.562;7.272;2022-11-20T00:51:16;99867.00;;;2.31;nan
36980;BME280;22891;50.562;7.272;2022-11-20T00:53:51;99862.00;;;2.10;nan
36980;BME280;22891;50.562;7.272;2022-11-20T00:56:18;99844.00;;;1.92;nan
36980;BME280;22891;50.562;7.272;2022-11-20T00:58:47;99863.00;;;2.01;nan
36980;BME280;22891;50.562;7.272;2022-11-20T01:01:24;99858.00;;;2.17;nan
36980;BME280;22891;50.562;7.272;2022-11-20T01:04:18;99847.00;;;2.23;nan
36980;BME280;22891;50.562;7.272;2022-11-20T01:06:43;99841.00;;;2.25;nan
36980;BME280;22891;50.562;7.272;2022-11-20T01:09:13;99845.00;;;2.24;nan
36980;BME280;22891;50.562;7.272;2022-11-20T01:11:42;99847.00;;;2.41;nan
36980;BME280;22891;50.562;7.272;2022-11-20T01:14:11;99838.00;;;2.30;nan
36980;BME280;22891;50.562;7.272;2022-11-20T01:16:48;99839.00;;;2.11;nan
36980;BME280;22891;50.562;7.272;2022-11-20T01:19:23;99836.00;;;2.25;nan
36980;BME280;22891;50.562;7.272;2022-11-20T01:21:52;99860.00;;;2.21;nan
36980;BME280;22891;50.562;7.272;2022-11-20T01:24:20;99838.00;;;2.28;nan
36980;BME280;22891;50.562;7.272;2022-11-20T01:26:48;99845.00;;;2.27;nan
36980;BME280;22891;50.562;7.272;2022-11-20T01:29:24;99826.00;;;2.22;nan
36980;BME280;22891;50.562;7.272;2022-11-20T01:31:50;99806.00;;;2.32;nan
36980;BME280;22891;50.562;7.272;2022-11-20T01:34:19;99802.00;;;2.19;nan
36980;BME280;22891;50.562;7.272;2022-11-20T01:36:45;99799.00;;;2.12;nan
36980;BME280;22891;50.562;7.272;2022-11-20T01:39:26;99796.00;;;2.26;nan
36980;BME280;22891;50.562;7.272;2022-11-20T01:41:53;99798.00;;;2.24;nan
36980;BME280;22891;50.562;7.272;2022-11-20T01:44:57;99793.00;;;2.15;nan
36980;BME280;22891;50.562;7.272;2022-11-20T01:47:31;99788.00;;;2.18;nan
36980;BME280;22891;50.562;7.272;2022-11-20T01:50:22;99775.00;;;2.32;nan
36980;BME280;22891;50.562;7.272;2022-11-20T01:52:55;99779.00;;;2.25;nan
36980;BME280;22891;50.562;7.272;2022-11-20T01:55:26;99757.00;;;2.12;nan
36980;BME280;22891;50.562;7.272;2022-11-20T01:57:54;99754.00;;;2.13;nan
36980;BME280;22891;50.562;7.272;2022-11-20T02:00:20;99751.00;;;2.27;nan
36980;BME280;22891;50.562;7.272;2022-11-20T02:03:01;99750.00;;;2.26;nan
36980;BME280;22891;50.562;7.272;2022-11-20T02:07:20;99739.00;;;2.23;nan
36980;BME280;22891;50.562;7.272;2022-11-20T02:09:48;99758.00;;;2.19;nan
36980;BME280;22891;50.562;7.272;2022-11-20T02:12:14;99752.00;;;2.49;nan
36980;BME280;22891;50.562;7.272;2022-11-20T02:16:24;99760.00;;;2.39;nan
36980;BME280;22891;50.562;7.272;2022-11-20T02:18:53;99760.00;;;2.36;nan
36980;BME280;22891;50.562;7.272;2022-11-20T02:21:45;99755.00;;;2.39;nan
36980;BME280;22891;50.562;7.272;2022-11-20T02:24:18;99750.00;;;2.39;nan
36980;BME280;22891;50.562;7.272;2022-11-20T02:29:52;99760.00;;;2.32;nan
36980;BME280;22891;50.562;7.272;2022-11-20T02:32:27;99743.00;;;2.19;nan
36980;BME280;22891;50.562;7.272;2022-11-20T02:34:54;99751.00;;;2.49;nan
36980;BME280;22891;50.562;7.272;2022-11-20T02:37:20;99750.00;;;2.39;nan
36980;BME280;22891;50.562;7.272;2022-11-20T02:39:48;99748.00;;;2.27;nan
36980;BME280;22891;50.562;7.272;2022-11-20T02:42:14;99726.00;;;2.32;nan
36980;BME280;22891;50.562;7.272;2022-11-20T02:44:40;99735.00;;;2.28;nan
36980;BME280;22891;50.562;7.272;2022-11-20T02:47:06;99735.00;;;2.42;nan
36980;BME280;22891;50.562;7.272;2022-11-20T02:49:32;99748.00;;;2.41;nan
36980;BME280;22891;50.562;7.272;2022-11-20T02:51:59;99741.00;;;2.71;nan
36980;BME280;22891;50.562;7.272;2022-11-20T02:54:25;99753.00;;;2.42;nan
36980;BME280;22891;50.562;7.272;2022-11-20T02:56:51;99750.00;;;2.45;nan
36980;BME280;22891;50.562;7.272;2022-11-20T02:59:17;99747.00;;;2.37;nan
36980;BME280;22891;50.562;7.272;2022-11-20T03:01:44;99739.00;;;2.48;nan
36980;BME280;22891;50.562;7.272;2022-11-20T03:04:10;99733.00;;;2.50;nan
36980;BME280;22891;50.562;7.272;2022-11-20T03:06:35;99735.00;;;2.36;nan
36980;BME280;22891;50.562;7.272;2022-11-20T03:09:02;99725.00;;;2.37;nan
36980;BME280;22891;50.562;7.272;2022-11-20T03:11:28;99713.00;;;2.36;nan
36980;BME280;22891;50.562;7.272;2022-11-20T03:13:55;99690.00;;;2.28;nan
36980;BME280;22891;50.562;7.272;2022-11-20T03:16:22;99699.00;;;2.18;nan
36980;BME280;22891;50.562;7.272;2022-11-20T03:18:51;99689.00;;;2.18;nan
36980;BME280;22891;50.562;7.272;2022-11-20T03:21:19;99682.00;;;2.10;nan
36980;BME280;22891;50.562;7.272;2022-11-20T03:23:46;99690.00;;;1.96;nan
36980;BME280;22891;50.562;7.272;2022-11-20T03:26:21;99671.00;;;2.17;nan
36980;BME280;22891;50.562;7.272;2022-11-20T03:28:52;99685.00;;;2.34;nan
36980;BME280;22891;50.562;7.272;2022-11-20T03:31:23;99691.00;;;2.54;nan
36980;BME280;22891;50.562;7.272;2022-11-20T03:33:50;99701.00;;;2.41;nan
36980;BME280;22891;50.562;7.272;2022-11-20T03:36:17;99706.00;;;2.48;nan
36980;BME280;22891;50.562;7.272;2022-11-20T03:38:44;99711.00;;;2.56;nan
36980;BME280;22891;50.562;7.272;2022-11-20T03:41:16;99707.00;;;2.54;nan
36980;BME280;22891;50.562;7.272;2022-11-20T03:43:48;99711.00;;;2.53;nan
36980;BME280;22891;50.562;7.272;2022-11-20T03:46:14;99718.00;;;2.45;nan
36980;BME280;22891;50.562;7.272;2022-11-20T03:48:40;99719.00;;;2.57;nan
36980;BME280;22891;50.562;7.272;2022-11-20T03:54:05;99717.00;;;2.47;nan
36980;BME280;22891;50.562;7.272;2022-11-20T03:56:34;99723.00;;;2.54;nan
36980;BME280;22891;50.562;7.272;2022-11-20T03:59:00;99729.00;;;2.45;nan
36980;BME280;22891;50.562;7.272;2022-11-20T04:01:30;99718.00;;;2.45;nan
36980;BME280;22891;50.562;7.272;2022-11-20T04:03:56;99716.00;;;2.36;nan
36980;BME280;22891;50.562;7.272;2022-11-20T04:07:46;99728.00;;;2.53;nan
36980;BME280;22891;50.562;7.272;2022-11-20T04:10:12;99689.00;;;2.33;nan
36980;BME280;22891;50.562;7.272;2022-11-20T04:12:38;99707.00;;;2.54;nan
36980;BME280;22891;50.562;7.272;2022-11-20T04:15:04;99709.00;;;2.52;nan
36980;BME280;22891;50.562;7.272;2022-11-20T04:17:31;99703.00;;;2.51;nan
36980;BME280;22891;50.562;7.272;2022-11-20T04:19:57;99708.00;;;2.51;nan
36980;BME280;22891;50.562;7.272;2022-11-20T04:22:26;99709.00;;;2.49;nan
36980;BME280;22891;50.562;7.272;2022-11-20T04:24:52;99710.00;;;2.68;nan
36980;BME280;22891;50.562;7.272;2022-11-20T04:27:19;99700.00;;;2.68;nan
36980;BME280;22891;50.562;7.272;2022-11-20T04:29:44;99695.00;;;2.75;nan
36980;BME280;22891;50.562;7.272;2022-11-20T04:32:10;99670.00;;;2.72;nan
36980;BME280;22891;50.562;7.272;2022-11-20T04:34:36;99689.00;;;2.71;nan
36980;BME280;22891;50.562;7.272;2022-11-20T04:37:02;99684.00;;;2.78;nan
36980;BME280;22891;50.562;7.272;2022-11-20T04:39:28;99697.00;;;2.73;nan
36980;BME280;22891;50.562;7.272;2022-11-20T04:41:54;99706.00;;;2.56;nan
36980;BME280;22891;50.562;7.272;2022-11-20T04:44:53;99702.00;;;2.63;nan
36980;BME280;22891;50.562;7.272;2022-11-20T04:47:20;99689.00;;;2.53;nan
36980;BME280;22891;50.562;7.272;2022-11-20T04:49:47;99684.00;;;2.53;nan
36980;BME280;22891;50.562;7.272;2022-11-20T04:52:13;99679.00;;;2.72;nan
36980;BME280;22891;50.562;7.272;2022-11-20T04:54:40;99677.00;;;2.68;nan
36980;BME280;22891;50.562;7.272;2022-11-20T04:57:05;99682.00;;;2.70;nan
36980;BME280;22891;50.562;7.272;2022-11-20T04:59:31;99672.00;;;2.80;nan
36980;BME280;22891;50.562;7.272;2022-11-20T05:01:57;99674.00;;;2.75;nan
36980;BME280;22891;50.562;7.272;2022-11-20T05:04:23;99670.00;;;2.94;nan
36980;BME280;22891;50.562;7.272;2022-11-20T05:06:50;99674.00;;;2.78;nan
36980;BME280;22891;50.562;7.272;2022-11-20T05:09:15;99681.00;;;2.65;nan
36980;BME280;22891;50.562;7.272;2022-11-20T05:11:41;99680.00;;;2.62;nan
36980;BME280;22891;50.562;7.272;2022-11-20T05:14:08;99677.00;;;2.39;nan
36980;BME280;22891;50.562;7.272;2022-11-20T05:16:34;99674.00;;;2.30;nan
36980;BME280;22891;50.562;7.272;2022-11-20T05:19:01;99661.00;;;2.36;nan
36980;BME280;22891;50.562;7.272;2022-11-20T05:21:30;99661.00;;;2.42;nan
36980;BME280;22891;50.562;7.272;2022-11-20T05:23:57;99658.00;;;2.37;nan
36980;BME280;22891;50.562;7.272;2022-11-20T05:26:23;99648.00;;;2.49;nan
36980;BME280;22891;50.562;7.272;2022-11-20T05:28:50;99642.00;;;2.43;nan
36980;BME280;22891;50.562;7.272;2022-11-20T05:31:19;99655.00;;;2.46;nan
36980;BME280;22891;50.562;7.272;2022-11-20T05:33:46;99651.00;;;2.48;nan
36980;BME280;22891;50.562;7.272;2022-11-20T05:36:13;99645.00;;;2.38;nan
36980;BME280;22891;50.562;7.272;2022-11-20T05:38:40;99642.00;;;2.49;nan
36980;BME280;22891;50.562;7.272;2022-11-20T05:41:43;99637.00;;;2.52;nan
36980;BME280;22891;50.562;7.272;2022-11-20T05:44:13;99637.00;;;2.71;nan
36980;BME280;22891;50.562;7.272;2022-11-20T05:46:39;99643.00;;;2.75;nan
36980;BME280;22891;50.562;7.272;2022-11-20T05:49:05;99646.00;;;2.73;nan
36980;BME280;22891;50.562;7.272;2022-11-20T05:51:30;99654.00;;;2.64;nan
36980;BME280;22891;50.562;7.272;2022-11-20T05:53:57;99659.00;;;2.56;nan
36980;BME280;22891;50.562;7.272;2022-11-20T05:56:23;99647.00;;;2.60;nan
36980;BME280;22891;50.562;7.272;2022-11-20T05:58:49;99638.00;;;2.78;nan
36980;BME280;22891;50.562;7.272;2022-11-20T06:01:18;99615.00;;;2.74;nan
36980;BME280;22891;50.562;7.272;2022-11-20T06:03:45;99635.00;;;2.66;nan
36980;BME280;22891;50.562;7.272;2022-11-20T06:06:15;99624.00;;;2.79;nan
36980;BME280;22891;50.562;7.272;2022-11-20T06:08:41;99627.00;;;2.78;nan
36980;BME280;22891;50.562;7.272;2022-11-20T06:11:09;99618.00;;;2.55;nan
36980;BME280;22891;50.562;7.272;2022-11-20T06:13:37;99637.00;;;2.85;nan
36980;BME280;22891;50.562;7.272;2022-11-20T06:16:03;99639.00;;;2.77;nan
36980;BME280;22891;50.562;7.272;2022-11-20T06:18:30;99633.00;;;2.75;nan
36980;BME280;22891;50.562;7.272;2022-11-20T06:21:10;99631.00;;;2.90;nan
36980;BME280;22891;50.562;7.272;2022-11-20T06:23:37;99628.00;;;2.83;nan
36980;BME280;22891;50.562;7.272;2022-11-20T06:26:05;99626.00;;;2.80;nan
36980;BME280;22891;50.562;7.272;2022-11-20T06:28:32;99633.00;;;2.64;nan
36980;BME280;22891;50.562;7.272;2022-11-20T06:30:58;99622.00;;;2.94;nan
36980;BME280;22891;50.562;7.272;2022-11-20T06:33:24;99634.00;;;2.88;nan
36980;BME280;22891;50.562;7.272;2022-11-20T06:35:51;99630.00;;;2.86;nan
36980;BME280;22891;50.562;7.272;2022-11-20T06:38:17;99626.00;;;2.82;nan
36980;BME280;22891;50.562;7.272;2022-11-20T06:40:42;99625.00;;;2.73;nan
36980;BME280;22891;50.562;7.272;2022-11-20T06:43:11;99620.00;;;2.64;nan
36980;BME280;22891;50.562;7.272;2022-11-20T06:45:38;99614.00;;;2.63;nan
36980;BME280;22891;50.562;7.272;2022-11-20T06:48:04;99622.00;;;2.67;nan
36980;BME280;22891;50.562;7.272;2022-11-20T06:50:31;99616.00;;;2.58;nan
36980;BME280;22891;50.562;7.272;2022-11-20T06:53:01;99615.00;;;2.61;nan
36980;BME280;22891;50.562;7.272;2022-11-20T06:55:28;99602.00;;;2.69;nan
36980;BME280;22891;50.562;7.272;2022-11-20T06:57:53;99603.00;;;2.66;nan
36980;BME280;22891;50.562;7.272;2022-11-20T07:00:19;99607.00;;;2.59;nan
36980;BME280;22891;50.562;7.272;2022-11-20T07:02:45;99608.00;;;2.66;nan
36980;BME280;22891;50.562;7.272;2022-11-20T07:05:11;99617.00;;;2.81;nan
36980;BME280;22891;50.562;7.272;2022-11-20T07:07:37;99619.00;;;2.79;nan
36980;BME280;22891;50.562;7.272;2022-11-20T07:10:03;99612.00;;;2.94;nan
36980;BME280;22891;50.562;7.272;2022-11-20T07:12:30;99626.00;;;2.96;nan
36980;BME280;22891;50.562;7.272;2022-11-20T07:14:55;99623.00;;;2.91;nan
36980;BME280;22891;50.562;7.272;2022-11-20T07:17:22;99629.00;;;3.13;nan
36980;BME280;22891;50.562;7.272;2022-11-20T07:19:48;99634.00;;;3.04;nan
36980;BME280;22891;50.562;7.272;2022-11-20T07:22:13;99649.00;;;2.97;nan
36980;BME280;22891;50.562;7.272;2022-11-20T07:24:40;99640.00;;;2.95;nan
36980;BME280;22891;50.562;7.272;2022-11-20T07:27:06;99654.00;;;2.67;nan
36980;BME280;22891;50.562;7.272;2022-11-20T07:29:32;99650.00;;;2.82;nan
36980;BME280;22891;50.562;7.272;2022-11-20T07:31:58;99656.00;;;2.83;nan
36980;BME280;22891;50.562;7.272;2022-11-20T07:34:25;99646.00;;;2.89;nan
36980;BME280;22891;50.562;7.272;2022-11-20T07:36:50;99642.00;;;2.96;nan
36980;BME280;22891;50.562;7.272;2022-11-20T07:39:16;99649.00;;;3.03;nan
36980;BME280;22891;50.562;7.272;2022-11-20T07:41:42;99651.00;;;3.14;nan
36980;BME280;22891;50.562;7.272;2022-11-20T07:44:08;99662.00;;;3.15;nan
36980;BME280;22891;50.562;7.272;2022-11-20T07:46:34;99663.00;;;3.15;nan
36980;BME280;22891;50.562;7.272;2022-11-20T07:49:00;99676.00;;;3.08;nan
36980;BME280;22891;50.562;7.272;2022-11-20T07:51:26;99673.00;;;3.02;nan
36980;BME280;22891;50.562;7.272;2022-11-20T07:53:53;99663.00;;;3.26;nan
36980;BME280;22891;50.562;7.272;2022-11-20T07:56:19;99660.00;;;3.19;nan
36980;BME280;22891;50.562;7.272;2022-11-20T07:58:44;99671.00;;;3.04;nan
36980;BME280;22891;50.562;7.272;2022-11-20T08:01:11;99663.00;;;3.09;nan
36980;BME280;22891;50.562;7.272;2022-11-20T08:03:37;99663.00;;;3.29;nan
36980;BME280;22891;50.562;7.272;2022-11-20T08:06:03;99672.00;;;3.30;nan
36980;BME280;22891;50.562;7.272;2022-11-20T08:08:29;99673.00;;;3.37;nan
36980;BME280;22891;50.562;7.272;2022-11-20T08:10:59;99677.00;;;3.30;nan
36980;BME280;22891;50.562;7.272;2022-11-20T08:13:44;99679.00;;;3.47;nan
36980;BME280;22891;50.562;7.272;2022-11-20T08:16:28;99680.00;;;3.41;nan
36980;BME280;22891;50.562;7.272;2022-11-20T08:18:54;99683.00;;;3.46;nan
36980;BME280;22891;50.562;7.272;2022-11-20T08:21:20;99683.00;;;3.49;nan
36980;BME280;22891;50.562;7.272;2022-11-20T08:23:46;99679.00;;;3.37;nan
36980;BME280;22891;50.562;7.272;2022-11-20T08:26:12;99688.00;;;3.48;nan
36980;BME280;22891;50.562;7.272;2022-11-20T08:28:38;99688.00;;;3.54;nan
36980;BME280;22891;50.562;7.272;2022-11-20T08:31:04;99691.00;;;3.64;nan
36980;BME280;22891;50.562;7.272;2022-11-20T08:33:30;99692.00;;;3.55;nan
36980;BME280;22891;50.562;7.272;2022-11-20T08:38:27;99688.00;;;3.62;nan
36980;BME280;22891;50.562;7.272;2022-11-20T08:40:57;99687.00;;;3.61;nan
36980;BME280;22891;50.562;7.272;2022-11-20T08:43:42;99682.00;;;3.65;nan
36980;BME280;22891;50.562;7.272;2022-11-20T08:46:08;99689.00;;;3.59;nan
36980;BME280;22891;50.562;7.272;2022-11-20T08:48:34;99701.00;;;3.60;nan
36980;BME280;22891;50.562;7.272;2022-11-20T08:51:00;99703.00;;;3.76;nan
36980;BME280;22891;50.562;7.272;2022-11-20T08:53:26;99701.00;;;3.79;nan
36980;BME280;22891;50.562;7.272;2022-11-20T08:55:53;99703.00;;;3.81;nan
36980;BME280;22891;50.562;7.272;2022-11-20T08:58:19;99701.00;;;3.76;nan
36980;BME280;22891;50.562;7.272;2022-11-20T09:00:45;99709.00;;;3.84;nan
36980;BME280;22891;50.562;7.272;2022-11-20T09:03:11;99715.00;;;3.88;nan
36980;BME280;22891;50.562;7.272;2022-11-20T09:05:39;99715.00;;;4.14;nan
36980;BME280;22891;50.562;7.272;2022-11-20T09:08:05;99738.00;;;4.02;nan
36980;BME280;22891;50.562;7.272;2022-11-20T09:10:30;99728.00;;;3.86;nan
36980;BME280;22891;50.562;7.272;2022-11-20T09:12:56;99757.00;;;4.29;nan
36980;BME280;22891;50.562;7.272;2022-11-20T09:15:24;99764.00;;;4.71;nan
36980;BME280;22891;50.562;7.272;2022-11-20T09:18:27;99775.00;;;4.57;nan
36980;BME280;22891;50.562;7.272;2022-11-20T09:20:57;99778.00;;;4.49;nan
36980;BME280;22891;50.562;7.272;2022-11-20T09:23:24;99782.00;;;4.28;nan
36980;BME280;22891;50.562;7.272;2022-11-20T09:25:50;99777.00;;;4.24;nan
36980;BME280;22891;50.562;7.272;2022-11-20T09:28:16;99790.00;;;4.21;nan
36980;BME280;22891;50.562;7.272;2022-11-20T09:30:43;99783.00;;;4.26;nan
36980;BME280;22891;50.562;7.272;2022-11-20T09:33:10;99794.00;;;4.33;nan
36980;BME280;22891;50.562;7.272;2022-11-20T09:35:35;99799.00;;;4.33;nan
36980;BME280;22891;50.562;7.272;2022-11-20T09:38:08;99804.00;;;4.45;nan
36980;BME280;22891;50.562;7.272;2022-11-20T09:40:36;99808.00;;;4.35;nan
36980;BME280;22891;50.562;7.272;2022-11-20T09:50:43;99802.00;;;4.22;nan
36980;BME280;22891;50.562;7.272;2022-11-20T09:54:25;99805.00;;;4.01;nan
36980;BME280;22891;50.562;7.272;2022-11-20T09:57:12;99773.00;;;4.04;nan
36980;BME280;22891;50.562;7.272;2022-11-20T09:59:42;99760.00;;;4.27;nan
36980;BME280;22891;50.562;7.272;2022-11-20T10:03:16;99746.00;;;4.32;nan
36980;BME280;22891;50.562;7.272;2022-11-20T10:05:51;99765.00;;;4.46;nan
36980;BME280;22891;50.562;7.272;2022-11-20T10:08:28;99767.00;;;4.35;nan
36980;BME280;22891;50.562;7.272;2022-11-20T10:19:54;99763.00;;;4.72;nan
36980;BME280;22891;50.562;7.272;2022-11-20T10:25:40;99803.00;;;5.11;nan
36980;BME280;22891;50.562;7.272;2022-11-20T10:29:40;99801.00;;;5.00;nan
36980;BME280;22891;50.562;7.272;2022-11-20T10:32:20;99820.00;;;5.17;nan
36980;BME280;22891;50.562;7.272;2022-11-20T10:35:01;99845.00;;;5.46;nan
36980;BME280;22891;50.562;7.272;2022-11-20T10:37:31;99868.00;;;5.34;nan
36980;BME280;22891;50.562;7.272;2022-11-20T10:40:19;99866.00;;;5.20;nan
36980;BME280;22891;50.562;7.272;2022-11-20T10:42:55;99888.00;;;5.40;nan
36980;BME280;22891;50.562;7.272;2022-11-20T10:45:31;99927.00;;;5.32;nan
36980;BME280;22891;50.562;7.272;2022-11-20T10:48:15;99944.00;;;5.20;nan
36980;BME280;22891;50.562;7.272;2022-11-20T10:54:22;99954.00;;;5.52;nan
36980;BME280;22891;50.562;7.272;2022-11-20T10:57:07;99951.00;;;5.15;nan
36980;BME280;22891;50.562;7.272;2022-11-20T11:02:53;99960.00;;;5.20;nan
36980;BME280;22891;50.562;7.272;2022-11-20T11:05:43;99950.00;;;5.33;nan
36980;BME280;22891;50.562;7.272;2022-11-20T11:08:15;99927.00;;;5.16;nan
36980;BME280;22891;50.562;7.272;2022-11-20T11:10:57;99926.00;;;5.28;nan
36980;BME280;22891;50.562;7.272;2022-11-20T11:13:29;99947.00;;;5.38;nan
36980;BME280;22891;50.562;7.272;2022-11-20T11:15:55;99950.00;;;5.62;nan
36980;BME280;22891;50.562;7.272;2022-11-20T11:18:32;99967.00;;;5.63;nan
36980;BME280;22891;50.562;7.272;2022-11-20T11:21:01;99968.00;;;5.47;nan
36980;BME280;22891;50.562;7.272;2022-11-20T11:23:33;99965.00;;;5.49;nan
36980;BME280;22891;50.562;7.272;2022-11-20T11:26:02;99953.00;;;5.70;nan
36980;BME280;22891;50.562;7.272;2022-11-20T11:28:29;99963.00;;;5.85;nan
36980;BME280;22891;50.562;7.272;2022-11-20T11:30:55;99961.00;;;5.72;nan
36980;BME280;22891;50.562;7.272;2022-11-20T11:33:30;99945.00;;;5.46;nan
36980;BME280;22891;50.562;7.272;2022-11-20T11:36:14;99944.00;;;5.71;nan
36980;BME280;22891;50.562;7.272;2022-11-20T11:38:43;99932.00;;;5.90;nan
36980;BME280;22891;50.562;7.272;2022-11-20T11:41:16;99933.00;;;5.99;nan
36980;BME280;22891;50.562;7.272;2022-11-20T11:43:59;99936.00;;;5.72;nan
36980;BME280;22891;50.562;7.272;2022-11-20T11:46:54;99929.00;;;5.78;nan
36980;BME280;22891;50.562;7.272;2022-11-20T11:49:21;99916.00;;;5.76;nan
36980;BME280;22891;50.562;7.272;2022-11-20T11:52:16;99913.00;;;5.84;nan
36980;BME280;22891;50.562;7.272;2022-11-20T11:55:04;99897.00;;;5.58;nan
36980;BME280;22891;50.562;7.272;2022-11-20T11:58:34;99871.00;;;5.71;nan
36980;BME280;22891;50.562;7.272;2022-11-20T12:02:24;99863.00;;;5.79;nan
36980;BME280;22891;50.562;7.272;2022-11-20T12:08:57;99856.00;;;5.68;nan
36980;BME280;22891;50.562;7.272;2022-11-20T12:11:33;99836.00;;;5.62;nan
36980;BME280;22891;50.562;7.272;2022-11-20T12:14:21;99802.00;;;5.64;nan
36980;BME280;22891;50.562;7.272;2022-11-20T12:16:52;99803.00;;;5.60;nan
36980;BME280;22891;50.562;7.272;2022-11-20T12:19:21;99785.00;;;5.71;nan
36980;BME280;22891;50.562;7.272;2022-11-20T12:23:24;99785.00;;;5.66;nan
36980;BME280;22891;50.562;7.272;2022-11-20T12:25:55;99770.00;;;5.79;nan
36980;BME280;22891;50.562;7.272;2022-11-20T12:28:52;99770.00;;;5.74;nan
36980;BME280;22891;50.562;7.272;2022-11-20T12:31:38;99769.00;;;5.75;nan
36980;BME280;22891;50.562;7.272;2022-11-20T12:45:25;99766.00;;;6.06;nan
36980;BME280;22891;50.562;7.272;2022-11-20T12:48:51;99774.00;;;5.86;nan
36980;BME280;22891;50.562;7.272;2022-11-20T12:51:51;99755.00;;;5.64;nan
36980;BME280;22891;50.562;7.272;2022-11-20T13:01:58;99739.00;;;5.57;nan
36980;BME280;22891;50.562;7.272;2022-11-20T13:05:11;99702.00;;;5.38;nan
36980;BME280;22891;50.562;7.272;2022-11-20T13:07:39;99677.00;;;5.33;nan
36980;BME280;22891;50.562;7.272;2022-11-20T13:10:15;99646.00;;;5.26;nan
36980;BME280;22891;50.562;7.272;2022-11-20T13:12:54;99639.00;;;5.34;nan
36980;BME280;22891;50.562;7.272;2022-11-20T13:15:44;99631.00;;;5.48;nan
36980;BME280;22891;50.562;7.272;2022-11-20T13:18:14;99615.00;;;5.42;nan
36980;BME280;22891;50.562;7.272;2022-11-20T13:20:48;99604.00;;;5.38;nan
36980;BME280;22891;50.562;7.272;2022-11-20T13:23:25;99601.00;;;5.46;nan
36980;BME280;22891;50.562;7.272;2022-11-20T13:26:19;99594.00;;;5.51;nan
36980;BME280;22891;50.562;7.272;2022-11-20T13:28:47;99579.00;;;5.75;nan
36980;BME280;22891;50.562;7.272;2022-11-20T13:31:34;99577.00;;;5.79;nan
36980;BME280;22891;50.562;7.272;2022-11-20T13:34:03;99574.00;;;5.83;nan
36980;BME280;22891;50.562;7.272;2022-11-20T13:36:30;99581.00;;;5.84;nan
36980;BME280;22891;50.562;7.272;2022-11-20T13:38:58;99590.00;;;5.74;nan
36980;BME280;22891;50.562;7.272;2022-11-20T13:41:33;99572.00;;;5.69;nan
36980;BME280;22891;50.562;7.272;2022-11-20T13:46:59;99569.00;;;5.55;nan
36980;BME280;22891;50.562;7.272;2022-11-20T13:49:34;99558.00;;;5.75;nan
36980;BME280;22891;50.562;7.272;2022-11-20T13:52:29;99543.00;;;5.77;nan
36980;BME280;22891;50.562;7.272;2022-11-20T14:01:46;99543.00;;;5.80;nan
36980;BME280;22891;50.562;7.272;2022-11-20T14:04:20;99522.00;;;5.74;nan
36980;BME280;22891;50.562;7.272;2022-11-20T14:06:49;99501.00;;;5.77;nan
36980;BME280;22891;50.562;7.272;2022-11-20T14:09:31;99488.00;;;5.79;nan
36980;BME280;22891;50.562;7.272;2022-11-20T14:11:57;99489.00;;;5.85;nan
36980;BME280;22891;50.562;7.272;2022-11-20T14:14:29;99475.00;;;5.83;nan
36980;BME280;22891;50.562;7.272;2022-11-20T14:17:33;99488.00;;;5.85;nan
36980;BME280;22891;50.562;7.272;2022-11-20T14:20:05;99491.00;;;5.87;nan
36980;BME280;22891;50.562;7.272;2022-11-20T14:22:48;99481.00;;;5.79;nan
36980;BME280;22891;50.562;7.272;2022-11-20T14:25:21;99468.00;;;5.82;nan
36980;BME280;22891;50.562;7.272;2022-11-20T14:27:59;99463.00;;;5.82;nan
36980;BME280;22891;50.562;7.272;2022-11-20T14:30:38;99446.00;;;5.88;nan
36980;BME280;22891;50.562;7.272;2022-11-20T14:33:11;99437.00;;;5.89;nan
36980;BME280;22891;50.562;7.272;2022-11-20T14:35:49;99431.00;;;5.88;nan
36980;BME280;22891;50.562;7.272;2022-11-20T14:38:17;99427.00;;;5.96;nan
36980;BME280;22891;50.562;7.272;2022-11-20T14:40:44;99423.00;;;6.09;nan
36980;BME280;22891;50.562;7.272;2022-11-20T14:43:26;99434.00;;;6.25;nan
36980;BME280;22891;50.562;7.272;2022-11-20T14:46:07;99435.00;;;6.13;nan
36980;BME280;22891;50.562;7.272;2022-11-20T14:48:47;99433.00;;;6.01;nan
36980;BME280;22891;50.562;7.272;2022-11-20T14:52:20;99428.00;;;5.98;nan
36980;BME280;22891;50.562;7.272;2022-11-20T14:55:13;99433.00;;;5.73;nan
36980;BME280;22891;50.562;7.272;2022-11-20T14:57:39;99409.00;;;5.75;nan
36980;BME280;22891;50.562;7.272;2022-11-20T15:00:39;99407.00;;;5.83;nan
36980;BME280;22891;50.562;7.272;2022-11-20T15:03:15;99397.00;;;5.83;nan
36980;BME280;22891;50.562;7.272;2022-11-20T15:05:47;99379.00;;;5.61;nan
36980;BME280;22891;50.562;7.272;2022-11-20T15:08:15;99399.00;;;5.77;nan
36980;BME280;22891;50.562;7.272;2022-11-20T15:10:49;99401.00;;;5.70;nan
36980;BME280;22891;50.562;7.272;2022-11-20T15:13:32;99385.00;;;5.67;nan
36980;BME280;22891;50.562;7.272;2022-11-20T15:16:01;99385.00;;;5.60;nan